createdAt,value
2022-12-31T00:01:28.065Z,11.25
2022-12-31T00:03:55.911Z,11.26
2022-12-31T00:06:24.315Z,11.29
2022-12-31T00:08:52.008Z,11.29
2022-12-31T00:11:19.022Z,11.32
2022-12-31T00:13:46.676Z,11.32
2022-12-31T00:16:19.829Z,11.32
2022-12-31T00:18:48.327Z,11.33
2022-12-31T00:21:15.912Z,11.35
2022-12-31T00:23:42.770Z,11.34
2022-12-31T00:26:12.188Z,11.32
2022-12-31T00:28:39.548Z,11.33
2022-12-31T00:31:10.723Z,11.33
2022-12-31T00:33:37.553Z,11.35
2022-12-31T00:36:09.533Z,11.34
2022-12-31T00:38:37.364Z,11.35
2022-12-31T00:41:04.526Z,11.36
2022-12-31T00:43:31.301Z,11.36
2022-12-31T00:45:57.847Z,11.36
2022-12-31T00:48:24.368Z,11.37
2022-12-31T00:50:50.978Z,11.35
2022-12-31T00:53:17.397Z,11.34
2022-12-31T00:55:44.511Z,11.34
2022-12-31T00:58:10.917Z,11.32
2022-12-31T01:00:38.453Z,11.32
2022-12-31T01:03:05.959Z,11.32
2022-12-31T01:05:34.217Z,11.30
2022-12-31T01:08:01.099Z,11.28
2022-12-31T01:10:46.689Z,11.24
2022-12-31T01:13:13.105Z,11.21
2022-12-31T01:15:39.694Z,11.16
2022-12-31T01:18:07.984Z,11.14
2022-12-31T01:20:38.888Z,11.12
2022-12-31T01:23:06.520Z,11.12
2022-12-31T01:25:37.445Z,11.11
2022-12-31T01:28:05.169Z,11.07
2022-12-31T01:30:32.553Z,11.06
2022-12-31T01:32:59.114Z,11.04
2022-12-31T01:35:25.855Z,11.02
2022-12-31T01:37:52.294Z,11.01
2022-12-31T01:40:18.746Z,11.00
2022-12-31T01:42:45.175Z,10.98
2022-12-31T01:45:13.717Z,10.97
2022-12-31T01:47:46.405Z,10.95
2022-12-31T01:50:18.078Z,10.96
2022-12-31T01:52:48.222Z,10.95
2022-12-31T01:55:33.246Z,10.92
2022-12-31T01:58:08.057Z,10.90
2022-12-31T02:00:35.066Z,10.89
2022-12-31T02:03:02.668Z,10.88
2022-12-31T02:05:41.311Z,10.87
2022-12-31T02:08:08.346Z,10.87
2022-12-31T02:10:35.569Z,10.88
2022-12-31T02:13:02.524Z,10.86
2022-12-31T02:15:48.180Z,10.86
2022-12-31T02:18:40.764Z,10.86
2022-12-31T02:21:25.613Z,10.86
2022-12-31T02:24:18.201Z,10.85
2022-12-31T02:26:53.523Z,10.84
2022-12-31T02:29:25.627Z,10.82
2022-12-31T02:32:12.733Z,10.83
2022-12-31T02:34:51.688Z,10.84
2022-12-31T02:37:23.327Z,10.83
2022-12-31T02:39:50.042Z,10.85
2022-12-31T02:42:16.452Z,10.84
2022-12-31T02:44:43.163Z,10.83
2022-12-31T02:47:09.529Z,10.81
2022-12-31T02:50:17.390Z,10.79
2022-12-31T02:52:55.000Z,10.76
2022-12-31T02:55:31.281Z,10.73
2022-12-31T02:58:45.431Z,10.72
2022-12-31T03:01:34.834Z,10.70
2022-12-31T03:04:25.173Z,10.69
2022-12-31T03:06:53.303Z,10.69
2022-12-31T03:09:19.831Z,10.68
2022-12-31T03:12:05.381Z,10.69
2022-12-31T03:14:31.838Z,10.67
2022-12-31T03:16:58.363Z,10.66
2022-12-31T03:19:43.171Z,10.65
2022-12-31T03:22:27.544Z,10.64
2022-12-31T03:25:28.164Z,10.62
2022-12-31T03:27:56.093Z,10.61
2022-12-31T03:30:23.760Z,10.60
2022-12-31T03:32:51.273Z,10.59
2022-12-31T03:35:20.462Z,10.57
2022-12-31T03:37:48.038Z,10.56
2022-12-31T03:40:15.601Z,10.55
2022-12-31T03:42:42.795Z,10.53
2022-12-31T03:45:10.798Z,10.51
2022-12-31T03:47:37.357Z,10.50
2022-12-31T03:50:05.964Z,10.48
2022-12-31T03:52:32.420Z,10.47
2022-12-31T03:54:59.576Z,10.44
2022-12-31T03:57:26.129Z,10.44
2022-12-31T03:59:52.772Z,10.42
2022-12-31T04:02:22.034Z,10.41
2022-12-31T04:04:52.947Z,10.39
2022-12-31T04:07:19.406Z,10.37
2022-12-31T04:09:45.899Z,10.36
2022-12-31T04:12:12.665Z,10.34
2022-12-31T04:14:39.087Z,10.33
2022-12-31T04:17:05.560Z,10.33
2022-12-31T04:19:32.535Z,10.31
2022-12-31T04:21:58.984Z,10.29
2022-12-31T04:24:25.687Z,10.30
2022-12-31T04:26:52.156Z,10.28
2022-12-31T04:29:18.670Z,10.29
2022-12-31T04:31:45.664Z,10.25
2022-12-31T04:34:12.202Z,10.26
2022-12-31T04:36:38.637Z,10.27
2022-12-31T04:39:05.161Z,10.26
2022-12-31T04:41:32.041Z,10.24
2022-12-31T04:43:59.497Z,10.23
2022-12-31T04:46:28.993Z,10.21
2022-12-31T04:48:56.068Z,10.20
2022-12-31T04:51:23.863Z,10.21
2022-12-31T04:53:50.441Z,10.21
2022-12-31T04:56:17.287Z,10.21
2022-12-31T04:58:44.179Z,10.21
2022-12-31T05:01:12.064Z,10.21
2022-12-31T05:03:39.078Z,10.22
2022-12-31T05:06:08.259Z,10.21
2022-12-31T05:08:34.799Z,10.23
2022-12-31T05:11:01.378Z,10.24
2022-12-31T05:13:32.931Z,10.25
2022-12-31T05:16:00.778Z,10.25
2022-12-31T05:18:27.694Z,10.26
2022-12-31T05:20:54.102Z,10.27
2022-12-31T05:23:20.540Z,10.27
2022-12-31T05:25:48.327Z,10.29
2022-12-31T05:28:15.968Z,10.30
2022-12-31T05:30:43.553Z,10.33
2022-12-31T05:33:10.574Z,10.36
2022-12-31T05:35:37.150Z,10.40
2022-12-31T05:38:03.821Z,10.39
2022-12-31T05:40:30.686Z,10.41
2022-12-31T05:42:57.396Z,10.45
2022-12-31T05:45:30.179Z,10.51
2022-12-31T05:47:57.405Z,10.54
2022-12-31T05:50:24.051Z,10.61
2022-12-31T05:52:55.707Z,10.65
2022-12-31T05:55:22.277Z,10.68
2022-12-31T05:57:48.851Z,10.69
2022-12-31T06:00:15.819Z,10.73
2022-12-31T06:02:42.875Z,10.77
2022-12-31T06:05:09.627Z,10.78
2022-12-31T06:07:36.186Z,10.78
2022-12-31T06:10:04.791Z,10.83
2022-12-31T06:12:31.363Z,10.84
2022-12-31T06:14:57.888Z,10.87
2022-12-31T06:17:24.456Z,10.91
2022-12-31T06:19:50.942Z,10.91
2022-12-31T06:22:17.495Z,10.94
2022-12-31T06:24:43.995Z,10.95
2022-12-31T06:27:11.055Z,10.96
2022-12-31T06:29:37.744Z,10.99
2022-12-31T06:32:04.515Z,10.98
2022-12-31T06:34:30.985Z,11.01
2022-12-31T06:36:58.315Z,11.02
2022-12-31T06:39:25.039Z,11.05
2022-12-31T06:41:51.473Z,11.07
2022-12-31T06:44:18.029Z,11.11
2022-12-31T06:46:44.567Z,11.16
2022-12-31T06:49:11.131Z,11.21
2022-12-31T06:51:37.659Z,11.27
2022-12-31T06:54:04.113Z,11.31
2022-12-31T06:56:34.564Z,11.37
2022-12-31T06:59:03.271Z,11.41
2022-12-31T07:01:49.239Z,11.47
2022-12-31T07:04:45.113Z,11.54
2022-12-31T07:07:20.521Z,11.59
2022-12-31T07:10:00.315Z,11.63
2022-12-31T07:12:42.073Z,11.69
2022-12-31T07:15:36.394Z,11.76
2022-12-31T07:18:29.081Z,11.79
2022-12-31T07:20:58.270Z,11.84
2022-12-31T07:23:25.298Z,11.88
2022-12-31T07:26:01.848Z,11.91
2022-12-31T07:28:36.284Z,11.99
2022-12-31T07:31:39.215Z,12.00
2022-12-31T07:34:24.566Z,12.05
2022-12-31T07:37:07.608Z,12.11
2022-12-31T07:39:58.409Z,12.13
2022-12-31T07:42:36.969Z,12.18
2022-12-31T07:45:08.839Z,12.21
2022-12-31T07:47:35.602Z,12.25
2022-12-31T07:50:02.357Z,12.30
2022-12-31T07:52:29.125Z,12.30
2022-12-31T07:54:55.579Z,12.34
2022-12-31T07:57:27.692Z,12.37
2022-12-31T08:00:14.654Z,12.38
2022-12-31T08:03:09.317Z,12.41
2022-12-31T08:05:57.688Z,12.45
2022-12-31T08:08:53.859Z,12.41
2022-12-31T08:11:30.530Z,12.39
2022-12-31T08:14:01.793Z,12.38
2022-12-31T08:16:28.827Z,12.42
2022-12-31T08:18:55.751Z,12.37
2022-12-31T08:21:37.123Z,12.40
2022-12-31T08:24:25.849Z,12.39
2022-12-31T08:27:24.998Z,12.35
2022-12-31T08:30:05.336Z,12.36
2022-12-31T08:32:39.888Z,12.37
2022-12-31T08:35:35.982Z,12.37
2022-12-31T08:38:43.515Z,12.35
2022-12-31T08:41:20.855Z,12.35
2022-12-31T08:43:59.295Z,12.34
2022-12-31T08:46:31.304Z,12.34
2022-12-31T08:48:58.029Z,12.34
2022-12-31T08:51:26.665Z,12.34
2022-12-31T08:53:53.513Z,12.32
2022-12-31T08:56:30.658Z,12.30
2022-12-31T08:59:11.972Z,12.30
2022-12-31T09:01:58.988Z,12.29
2022-12-31T09:04:48.875Z,12.29
2022-12-31T09:07:17.906Z,12.27
2022-12-31T09:10:03.677Z,12.30
2022-12-31T09:12:39.724Z,12.30
2022-12-31T09:15:20.052Z,12.29
2022-12-31T09:17:49.643Z,12.30
2022-12-31T09:20:36.358Z,12.35
2022-12-31T09:23:08.860Z,12.40
2022-12-31T09:26:01.162Z,12.44
2022-12-31T09:28:36.289Z,12.51
2022-12-31T09:31:17.153Z,12.57
2022-12-31T09:34:14.979Z,12.65
2022-12-31T09:37:15.335Z,12.71
2022-12-31T09:39:47.604Z,12.73
2022-12-31T09:42:45.012Z,12.75
2022-12-31T09:45:24.651Z,12.80
2022-12-31T09:48:09.149Z,12.84
2022-12-31T09:51:02.488Z,12.87
2022-12-31T09:53:50.528Z,12.89
2022-12-31T09:56:29.079Z,12.93
2022-12-31T09:59:23.428Z,12.98
2022-12-31T10:01:59.003Z,12.98
2022-12-31T10:04:38.708Z,12.97
2022-12-31T10:07:28.109Z,12.97
2022-12-31T10:09:59.475Z,13.01
2022-12-31T10:12:42.690Z,13.04
2022-12-31T10:15:52.988Z,13.15
2022-12-31T10:18:36.501Z,13.22
2022-12-31T10:21:36.268Z,13.30
2022-12-31T10:24:08.439Z,13.32
2022-12-31T10:27:14.058Z,13.36
2022-12-31T10:29:54.922Z,13.43
2022-12-31T10:32:44.071Z,13.49
2022-12-31T10:35:42.833Z,13.54
2022-12-31T10:38:32.067Z,13.57
2022-12-31T10:41:30.760Z,13.52
2022-12-31T10:44:21.913Z,13.51
2022-12-31T10:47:19.626Z,13.52
2022-12-31T10:50:04.386Z,13.51
2022-12-31T10:52:55.488Z,13.50
2022-12-31T10:55:40.779Z,13.47
2022-12-31T10:58:36.942Z,13.44
2022-12-31T11:01:33.609Z,13.44
2022-12-31T11:04:37.357Z,13.47
2022-12-31T11:07:46.450Z,13.44
2022-12-31T11:10:40.798Z,13.45
2022-12-31T11:13:19.607Z,13.46
2022-12-31T11:16:10.067Z,13.48
2022-12-31T11:18:56.817Z,13.49
2022-12-31T11:21:41.358Z,13.53
2022-12-31T11:24:51.126Z,13.51
2022-12-31T11:27:38.579Z,13.46
2022-12-31T11:30:45.682Z,13.47
2022-12-31T11:33:21.315Z,13.46
2022-12-31T11:36:13.707Z,13.49
2022-12-31T11:38:45.570Z,13.49
2022-12-31T11:41:21.218Z,13.49
2022-12-31T11:44:15.799Z,13.50
2022-12-31T11:47:03.647Z,13.52
2022-12-31T11:49:52.026Z,13.55
2022-12-31T11:52:33.736Z,13.57
2022-12-31T11:55:23.145Z,13.62
2022-12-31T11:57:50.991Z,13.70
2022-12-31T12:00:20.838Z,13.70
2022-12-31T12:02:51.949Z,13.74
2022-12-31T12:05:21.804Z,13.80
2022-12-31T12:07:50.113Z,13.89
2022-12-31T12:10:35.290Z,13.88
2022-12-31T12:13:16.942Z,13.88
2022-12-31T12:15:47.983Z,13.85
2022-12-31T12:18:24.666Z,13.85
2022-12-31T12:20:51.237Z,13.82
2022-12-31T12:23:25.571Z,13.79
2022-12-31T12:25:52.877Z,13.77
2022-12-31T12:28:26.530Z,13.74
2022-12-31T12:30:56.606Z,13.74
2022-12-31T12:33:23.555Z,13.75
2022-12-31T12:35:50.992Z,13.78
2022-12-31T12:38:21.239Z,13.77
2022-12-31T12:41:00.392Z,13.80
2022-12-31T12:43:33.165Z,13.80
2022-12-31T12:46:02.329Z,13.82
2022-12-31T12:48:38.340Z,13.75
2022-12-31T12:51:33.919Z,13.76
2022-12-31T12:54:12.819Z,13.73
2022-12-31T12:56:57.129Z,13.77
2022-12-31T12:59:48.586Z,13.85
2022-12-31T13:02:21.295Z,13.84
2022-12-31T13:05:28.258Z,13.85
2022-12-31T13:08:33.781Z,13.85
2022-12-31T13:11:06.641Z,13.87
2022-12-31T13:14:10.582Z,13.85
2022-12-31T13:16:47.024Z,13.86
2022-12-31T13:19:22.289Z,13.83
2022-12-31T13:21:48.703Z,13.79
2022-12-31T13:24:36.931Z,13.75
2022-12-31T13:27:06.416Z,13.74
2022-12-31T13:29:35.778Z,13.71
2022-12-31T13:32:07.116Z,13.66
2022-12-31T13:34:41.611Z,13.62
2022-12-31T13:37:28.328Z,13.60
2022-12-31T13:40:05.742Z,13.59
2022-12-31T13:42:53.029Z,13.59
2022-12-31T13:45:32.072Z,13.61
2022-12-31T13:48:06.259Z,13.59
2022-12-31T13:50:39.051Z,13.58
2022-12-31T13:53:26.690Z,13.57
2022-12-31T13:55:58.325Z,13.55
2022-12-31T13:58:40.857Z,13.56
2022-12-31T14:01:26.246Z,13.54
2022-12-31T14:04:03.879Z,13.54
2022-12-31T14:06:45.733Z,13.56
2022-12-31T14:09:33.798Z,13.60
2022-12-31T14:12:17.890Z,13.60
2022-12-31T14:14:49.680Z,13.57
2022-12-31T14:17:23.979Z,13.55
2022-12-31T14:20:16.391Z,13.57
2022-12-31T14:23:02.707Z,13.56
2022-12-31T14:25:38.049Z,13.56
2022-12-31T14:28:06.650Z,13.56
2022-12-31T14:30:40.677Z,13.52
2022-12-31T14:33:34.776Z,13.50
2022-12-31T14:36:25.669Z,13.46
2022-12-31T14:39:14.042Z,13.36
2022-12-31T14:41:40.579Z,13.29
2022-12-31T14:44:25.734Z,13.24
2022-12-31T14:47:19.354Z,13.26
2022-12-31T14:49:57.874Z,13.20
2022-12-31T14:52:25.002Z,13.18
2022-12-31T14:55:09.846Z,13.18
2022-12-31T14:58:17.206Z,13.17
2022-12-31T15:00:33.291Z,13.15
2022-12-31T15:03:23.013Z,13.18
2022-12-31T15:06:25.641Z,13.20
2022-12-31T15:09:22.367Z,13.14
2022-12-31T15:12:16.108Z,13.10
2022-12-31T15:14:58.815Z,13.10
2022-12-31T15:18:12.584Z,13.07
2022-12-31T15:21:23.533Z,13.07
2022-12-31T15:23:50.174Z,13.10
2022-12-31T15:26:21.453Z,13.10
2022-12-31T15:29:06.557Z,13.14
2022-12-31T15:31:35.616Z,13.15
2022-12-31T15:34:07.765Z,13.16
2022-12-31T15:36:38.070Z,13.22
2022-12-31T15:39:12.300Z,13.26
2022-12-31T15:42:10.333Z,13.28
2022-12-31T15:44:45.073Z,13.28
2022-12-31T15:47:28.679Z,13.34
2022-12-31T15:49:55.694Z,13.36
2022-12-31T15:52:33.897Z,13.37
2022-12-31T15:55:03.881Z,13.39
2022-12-31T15:57:33.695Z,13.44
2022-12-31T16:00:02.064Z,13.47
2022-12-31T16:02:31.692Z,13.48
2022-12-31T16:04:58.253Z,13.48
2022-12-31T16:07:28.052Z,13.53
2022-12-31T16:09:57.796Z,13.57
2022-12-31T16:12:32.717Z,13.65
2022-12-31T16:15:01.778Z,13.61
2022-12-31T16:17:33.961Z,13.56
2022-12-31T16:20:02.283Z,13.48
2022-12-31T16:22:40.111Z,13.47
2022-12-31T16:27:54.966Z,13.57
2022-12-31T16:30:30.656Z,13.64
2022-12-31T16:33:03.341Z,13.63
2022-12-31T16:35:31.117Z,13.57
2022-12-31T16:38:20.635Z,13.59
2022-12-31T16:41:02.204Z,13.56
2022-12-31T16:43:39.113Z,13.54
2022-12-31T16:46:11.505Z,13.47
2022-12-31T16:48:38.513Z,13.51
2022-12-31T16:51:05.939Z,13.59
2022-12-31T16:53:36.324Z,13.59
2022-12-31T16:56:08.770Z,13.64
2022-12-31T16:58:39.847Z,13.54
2022-12-31T17:01:27.704Z,13.53
2022-12-31T17:04:04.820Z,13.54
2022-12-31T17:06:33.443Z,13.54
2022-12-31T17:09:05.116Z,13.57
2022-12-31T17:11:35.477Z,13.57
2022-12-31T17:14:08.239Z,13.47
2022-12-31T17:16:44.157Z,13.42
2022-12-31T17:19:43.252Z,13.48
2022-12-31T17:22:31.817Z,13.54
2022-12-31T17:25:15.452Z,13.53
2022-12-31T17:27:52.972Z,13.53
2022-12-31T17:30:32.684Z,13.50
2022-12-31T17:33:22.111Z,13.56
2022-12-31T17:35:54.466Z,13.52
2022-12-31T17:38:20.876Z,13.54
2022-12-31T17:40:52.082Z,13.52
2022-12-31T17:43:23.588Z,13.57
2022-12-31T17:45:52.552Z,13.60
2022-12-31T17:48:19.845Z,13.60
2022-12-31T17:50:48.298Z,13.58
2022-12-31T17:53:15.091Z,13.55
2022-12-31T17:55:45.338Z,13.56
2022-12-31T17:58:35.358Z,13.65
2022-12-31T18:01:05.986Z,13.60
2022-12-31T18:03:32.532Z,13.59
2022-12-31T18:05:59.059Z,13.62
2022-12-31T18:08:25.551Z,13.68
2022-12-31T18:10:53.973Z,13.74
2022-12-31T18:13:23.789Z,13.72
2022-12-31T18:15:50.880Z,13.71
2022-12-31T18:18:26.487Z,13.69
2022-12-31T18:20:58.638Z,13.65
2022-12-31T18:23:33.552Z,13.73
2022-12-31T18:26:00.119Z,13.74
2022-12-31T18:28:27.364Z,13.71
2022-12-31T18:30:53.870Z,13.76
2022-12-31T18:33:25.647Z,13.79
2022-12-31T18:36:10.313Z,13.81
2022-12-31T18:38:37.177Z,13.74
2022-12-31T18:41:04.230Z,13.75
2022-12-31T18:43:30.820Z,13.78
2022-12-31T18:45:57.567Z,13.83
2022-12-31T18:48:24.412Z,13.81
2022-12-31T18:50:51.099Z,13.90
2022-12-31T18:53:22.895Z,13.88
2022-12-31T18:55:57.051Z,13.91
2022-12-31T18:58:24.014Z,13.98
2022-12-31T19:00:51.378Z,13.96
2022-12-31T19:03:23.497Z,13.96
2022-12-31T19:05:51.812Z,14.09
2022-12-31T19:08:20.010Z,14.13
2022-12-31T19:10:47.601Z,14.11
2022-12-31T19:13:16.429Z,14.17
2022-12-31T19:15:47.253Z,14.17
2022-12-31T19:18:13.833Z,14.11
2022-12-31T19:20:41.229Z,14.10
2022-12-31T19:23:17.777Z,14.12
2022-12-31T19:25:44.782Z,14.11
2022-12-31T19:28:17.386Z,14.15
2022-12-31T19:30:44.169Z,14.12
2022-12-31T19:33:10.813Z,14.09
2022-12-31T19:35:38.410Z,14.08
2022-12-31T19:38:10.227Z,13.95
2022-12-31T19:40:36.737Z,13.88
2022-12-31T19:43:03.260Z,13.87
2022-12-31T19:45:29.946Z,13.76
2022-12-31T19:47:56.760Z,13.72
2022-12-31T19:50:26.597Z,13.77
2022-12-31T19:52:56.744Z,13.78
2022-12-31T19:55:27.796Z,13.81
2022-12-31T19:57:54.266Z,13.88
2022-12-31T20:00:21.628Z,13.88
2022-12-31T20:02:48.822Z,13.93
2022-12-31T20:05:17.068Z,13.97
2022-12-31T20:07:43.610Z,13.92
2022-12-31T20:10:10.933Z,13.86
2022-12-31T20:12:43.974Z,13.84
2022-12-31T20:15:11.163Z,13.80
2022-12-31T20:17:37.685Z,13.85
2022-12-31T20:20:05.578Z,13.87
2022-12-31T20:22:32.891Z,13.96
2022-12-31T20:24:59.385Z,13.95
2022-12-31T20:27:25.858Z,13.95
2022-12-31T20:29:52.449Z,13.95
2022-12-31T20:32:18.939Z,13.87
2022-12-31T20:34:45.465Z,13.85
2022-12-31T20:37:11.924Z,13.92
2022-12-31T20:39:38.393Z,13.91
2022-12-31T20:42:05.666Z,13.99
2022-12-31T20:44:32.164Z,14.02
2022-12-31T20:46:58.670Z,14.11
2022-12-31T20:49:44.811Z,14.08
2022-12-31T20:52:11.465Z,14.12
2022-12-31T20:54:37.923Z,14.13
2022-12-31T20:57:04.958Z,14.08
2022-12-31T20:59:31.486Z,14.08
2022-12-31T21:04:45.275Z,14.13
2022-12-31T21:07:12.021Z,14.28
2022-12-31T21:09:38.431Z,14.30
2022-12-31T21:12:23.574Z,14.41
2022-12-31T21:14:50.086Z,14.42
2022-12-31T21:17:16.523Z,14.33
2022-12-31T21:19:42.945Z,14.35
2022-12-31T21:22:09.927Z,14.41
2022-12-31T21:24:36.356Z,14.40
2022-12-31T21:27:02.867Z,14.41
2022-12-31T21:29:34.295Z,14.42
2022-12-31T21:32:01.313Z,14.38
2022-12-31T21:34:28.462Z,14.35
2022-12-31T21:36:54.925Z,14.38
2022-12-31T21:39:21.401Z,14.38
2022-12-31T21:41:50.878Z,14.40
2022-12-31T21:44:20.724Z,14.35
2022-12-31T21:47:25.187Z,14.28
2022-12-31T21:49:35.469Z,14.21
2022-12-31T21:52:20.683Z,14.10
2022-12-31T21:55:06.215Z,14.13
2022-12-31T21:57:51.837Z,14.12
2022-12-31T22:00:42.697Z,14.17
2022-12-31T22:03:24.265Z,14.22
2022-12-31T22:05:52.588Z,14.23
2022-12-31T22:08:21.081Z,14.26
2022-12-31T22:10:52.404Z,14.33
2022-12-31T22:13:20.701Z,14.34
2022-12-31T22:15:49.324Z,14.45
2022-12-31T22:18:16.606Z,14.34
2022-12-31T22:20:43.741Z,14.40
2022-12-31T22:23:10.288Z,14.36
2022-12-31T22:25:38.352Z,14.34
2022-12-31T22:28:37.637Z,14.29
2022-12-31T22:30:53.125Z,14.29
2022-12-31T22:33:20.331Z,14.35
2022-12-31T22:36:19.858Z,14.30
2022-12-31T22:38:47.476Z,14.26
2022-12-31T22:41:17.460Z,14.31
2022-12-31T22:43:46.657Z,14.34
2022-12-31T22:46:24.619Z,14.39
2022-12-31T22:48:53.853Z,14.43
2022-12-31T22:51:20.893Z,14.45
2022-12-31T22:53:47.897Z,14.45
2022-12-31T22:56:16.809Z,14.43
2022-12-31T22:58:43.810Z,14.39
2022-12-31T23:01:21.728Z,14.42
2022-12-31T23:03:49.916Z,14.47
2022-12-31T23:06:17.395Z,14.43
2022-12-31T23:09:03.806Z,14.42
2022-12-31T23:11:30.511Z,14.46
2022-12-31T23:14:15.505Z,14.50
2022-12-31T23:17:00.335Z,14.40
2022-12-31T23:20:05.280Z,14.34
2022-12-31T23:22:50.547Z,14.36
2022-12-31T23:25:17.254Z,14.41
2022-12-31T23:27:44.169Z,14.39
2022-12-31T23:30:11.550Z,14.44
2022-12-31T23:32:38.067Z,14.51
2022-12-31T23:35:09.794Z,14.47
2022-12-31T23:37:36.904Z,14.41
2022-12-31T23:40:04.260Z,14.46
2022-12-31T23:42:30.736Z,14.43
2022-12-31T23:44:57.223Z,14.40
2022-12-31T23:47:23.724Z,14.35
2022-12-31T23:49:50.192Z,14.31
2022-12-31T23:52:16.661Z,14.31
2022-12-31T23:54:43.101Z,14.23
2022-12-31T23:57:09.656Z,14.29
2022-12-31T23:59:36.236Z,14.25
